Time;durP1;ratioP1;P1;durP2;ratioP2;P2;SDS_P1;SDS_P2;PMS_P1;PMS_P2;Temp;Humidity;BMP_temperature;BMP_pressure;BME280_temperature;BME280_humidity;BME280_pressure;Samples;Min_cycle;Max_cycle;Signal;HPM_P1;HPM_P2
2022/01/02 00:04:35;;;;;;;58.60;27.77;;;;;;;9.72;100.00;101280.47;5141793;57;1138955;-75
2022/01/02 00:09:46;;;;;;;41.03;21.47;;;;;;;9.66;100.00;101257.92;5154619;56;1138668;-75
2022/01/02 00:14:56;;;;;;;36.10;18.73;;;;;;;9.64;100.00;101256.31;5137750;57;1143053;-73
2022/01/02 00:20:10;;;;;;;38.00;18.53;;;;;;;9.60;100.00;101243.80;5108776;57;1143506;-74
2022/01/02 00:25:24;;;;;;;51.23;24.37;;;;;;;9.59;100.00;101228.04;5097770;57;1143408;-72
2022/01/02 00:30:21;;;;;;;40.70;20.20;;;;;;;9.61;100.00;101206.34;5059934;57;1142799;-75
2022/01/02 00:35:28;;;;;;;36.30;18.60;;;;;;;9.65;100.00;101203.39;5102188;57;1143202;-72
2022/01/02 00:40:38;;;;;;;32.20;17.67;;;;;;;9.68;100.00;101207.17;5099147;57;1143041;-75
2022/01/02 00:45:47;;;;;;;38.70;19.37;;;;;;;9.66;100.00;101235.47;5133072;57;1143246;-75
2022/01/02 00:50:58;;;;;;;30.37;17.03;;;;;;;9.62;100.00;101235.31;5046332;57;1143185;-73
2022/01/02 00:56:05;;;;;;;36.77;18.23;;;;;;;9.61;100.00;101221.72;5141640;57;1143181;-76
2022/01/02 01:01:15;;;;;;;34.97;16.30;;;;;;;9.62;100.00;101231.81;5141647;57;1143102;-72
2022/01/02 01:06:27;;;;;;;40.57;21.97;;;;;;;9.63;100.00;101205.75;5141505;57;1143150;-75
2022/01/02 01:11:33;;;;;;;44.13;22.00;;;;;;;9.61;100.00;101204.56;5083702;57;1143163;-74
2022/01/02 01:16:39;;;;;;;34.60;19.27;;;;;;;9.59;100.00;101189.28;5058443;58;1143136;-74
2022/01/02 01:21:47;;;;;;;44.47;20.00;;;;;;;9.58;100.00;101198.14;5056756;58;1143306;-74
2022/01/02 01:26:56;;;;;;;34.47;19.40;;;;;;;9.58;100.00;101201.25;5058887;58;1143454;-74
2022/01/02 01:32:07;;;;;;;42.47;23.53;;;;;;;9.58;100.00;101190.22;5053734;58;1143106;-73
2022/01/02 01:37:13;;;;;;;45.60;24.10;;;;;;;9.57;100.00;101183.71;5047111;58;1143177;-73
2022/01/02 01:42:30;;;;;;;40.57;24.33;;;;;;;9.58;100.00;101184.09;5047064;58;1143376;-77
2022/01/02 01:47:27;;;;;;;47.83;23.90;;;;;;;9.58;100.00;101173.05;5053760;57;1143150;-74
2022/01/02 01:52:33;;;;;;;37.83;21.43;;;;;;;9.66;100.00;101181.80;5101543;57;1143411;-76
2022/01/02 01:57:41;;;;;;;39.73;23.67;;;;;;;9.66;100.00;101181.80;5086182;57;1143369;-75
2022/01/02 02:02:47;;;;;;;45.77;23.67;;;;;;;9.60;100.00;101184.38;5122276;57;1143485;-75
2022/01/02 02:07:54;;;;;;;47.17;24.93;;;;;;;9.53;100.00;101167.20;5077765;57;1143170;-74
2022/01/02 02:13:04;;;;;;;35.93;22.07;;;;;;;9.50;100.00;101148.44;5095726;56;1143238;-72
2022/01/02 02:18:13;;;;;;;42.93;21.85;;;;;;;9.49;100.00;101139.28;5048235;57;1143126;-75
2022/01/02 02:23:19;;;;;;;49.77;24.13;;;;;;;9.51;100.00;101116.27;5093490;57;1143152;-72
2022/01/02 02:28:30;;;;;;;43.80;22.10;;;;;;;9.55;100.00;101108.55;5122669;57;1143311;-73
2022/01/02 02:33:35;;;;;;;40.90;24.40;;;;;;;9.56;100.00;101081.19;5107068;57;1141189;-76
2022/01/02 02:38:41;;;;;;;46.57;23.07;;;;;;;9.57;100.00;101081.56;5090407;57;1141362;-72
2022/01/02 02:44:00;;;;;;;40.43;20.97;;;;;;;9.57;100.00;101068.36;5076581;57;1141293;-73
2022/01/02 02:49:01;;;;;;;43.03;20.90;;;;;;;9.57;100.00;101071.48;5111857;57;1141068;-73
2022/01/02 02:54:08;;;;;;;39.17;19.00;;;;;;;9.54;100.00;101068.56;5132118;57;1141065;-72
2022/01/02 02:59:14;;;;;;;37.47;19.73;;;;;;;9.44;100.00;101047.66;5131890;57;1141110;-76
2022/01/02 03:04:21;;;;;;;37.07;19.87;;;;;;;9.45;100.00;101054.17;5131892;57;1141174;-74
2022/01/02 03:09:39;;;;;;;35.70;17.27;;;;;;;9.43;100.00;101048.61;5113442;57;1141450;-75
2022/01/02 03:14:34;;;;;;;33.90;17.60;;;;;;;9.40;100.00;101031.16;5047288;57;1141024;-74
2022/01/02 03:19:40;;;;;;;32.10;13.83;;;;;;;9.37;100.00;101023.91;5048878;57;1141084;-73
2022/01/02 03:24:49;;;;;;;27.53;16.33;;;;;;;9.33;100.00;101018.45;5048913;57;1141318;-74
2022/01/02 03:29:57;;;;;;;26.87;14.40;;;;;;;9.32;100.00;100995.16;5048747;57;1141034;-76
2022/01/02 03:35:03;;;;;;;25.93;14.20;;;;;;;9.33;100.00;100989.41;5055468;57;1141091;-74
2022/01/02 03:40:11;;;;;;;31.53;16.10;;;;;;;9.33;100.00;100981.48;5058606;57;1141266;-73
2022/01/02 03:45:17;;;;;;;30.33;13.33;;;;;;;9.37;100.00;100972.44;5058029;57;1141076;-74
2022/01/02 03:50:23;;;;;;;29.27;14.38;;;;;;;9.38;100.00;100977.61;5053238;57;1138930;-73
2022/01/02 03:55:29;;;;;;;60.37;27.63;;;;;;;9.36;100.00;100966.78;5067611;58;22268;-74
2022/01/02 04:00:35;;;;;;;55.13;23.00;;;;;;;9.34;100.00;100948.40;5048176;57;1139064;-74
2022/01/02 04:05:43;;;;;;;50.83;21.80;;;;;;;9.36;100.00;100947.83;5048301;57;1143505;-72
2022/01/02 04:10:49;;;;;;;39.87;19.03;;;;;;;9.38;100.00;100935.85;5089098;57;1143779;-74
2022/01/02 04:15:55;;;;;;;35.90;18.17;;;;;;;9.40;100.00;100936.60;5131453;57;1143457;-76
2022/01/02 04:21:02;;;;;;;31.70;17.47;;;;;;;9.43;100.00;100929.80;5131226;57;1143499;-76
2022/01/02 04:26:08;;;;;;;36.73;18.80;;;;;;;9.37;100.00;100924.92;5131040;57;1143166;-72
2022/01/02 04:31:14;;;;;;;70.30;25.30;;;;;;;9.33;100.00;100907.11;5130923;57;1143333;-75
2022/01/02 04:36:20;;;;;;;37.23;18.20;;;;;;;9.31;100.00;100894.52;5123344;57;1143228;-73
2022/01/02 04:41:26;;;;;;;40.07;18.13;;;;;;;9.29;100.00;100880.56;5120991;57;1143168;-75
2022/01/02 04:46:32;;;;;;;31.10;17.53;;;;;;;9.26;100.00;100871.53;5120988;57;1143277;-72
2022/01/02 04:51:38;;;;;;;34.90;19.37;;;;;;;9.23;100.00;100861.17;5120981;57;1143302;-75
2022/01/02 04:56:44;;;;;;;40.33;19.97;;;;;;;9.18;100.00;100850.91;5121493;57;1143155;-76
2022/01/02 05:01:51;;;;;;;42.10;21.07;;;;;;;9.15;100.00;100842.38;5121749;57;1143162;-75
2022/01/02 05:06:57;;;;;;;25.13;12.57;;;;;;;9.04;100.00;100821.11;5121680;57;1143390;-75
2022/01/02 05:12:04;;;;;;;32.33;17.20;;;;;;;8.97;100.00;100812.77;5121749;57;1143223;-76
2022/01/02 05:17:11;;;;;;;26.10;14.30;;;;;;;8.86;100.00;100812.61;5121621;57;1143106;-73
2022/01/02 05:22:17;;;;;;;26.80;13.33;;;;;;;8.81;100.00;100787.88;5121500;57;1143244;-73
2022/01/02 05:27:25;;;;;;;25.03;13.43;;;;;;;8.81;100.00;100763.30;5121404;57;1143228;-76
2022/01/02 05:32:30;;;;;;;24.53;12.70;;;;;;;8.80;100.00;100776.11;5121289;57;1143286;-73
2022/01/02 05:37:37;;;;;;;24.33;11.73;;;;;;;8.77;100.00;100772.36;5119423;57;1143155;-73
2022/01/02 05:42:45;;;;;;;26.20;11.87;;;;;;;8.72;100.00;100769.16;5129876;57;1143256;-73
2022/01/02 05:47:51;;;;;;;19.57;10.07;;;;;;;8.68;100.00;100759.79;5129852;57;1143254;-73
2022/01/02 05:52:58;;;;;;;15.77;8.60;;;;;;;8.65;100.00;100772.70;5129818;57;1143399;-75
2022/01/02 05:58:06;;;;;;;18.37;10.10;;;;;;;8.61;100.00;100770.35;5129754;57;1141402;-74
2022/01/02 06:03:11;;;;;;;18.90;8.33;;;;;;;8.56;100.00;100779.87;5129571;57;1142981;-73
2022/01/02 06:08:17;;;;;;;14.63;8.13;;;;;;;8.53;100.00;100771.34;5129881;57;1141070;-73
2022/01/02 06:13:24;;;;;;;16.87;7.97;;;;;;;8.51;100.00;100752.14;5215535;56;1141089;-76
2022/01/02 06:18:30;;;;;;;15.73;8.13;;;;;;;8.50;100.00;100729.36;5215586;56;1141099;-74
2022/01/02 06:23:35;;;;;;;14.83;8.37;;;;;;;8.49;100.00;100708.73;5215599;56;1141054;-74
2022/01/02 06:28:42;;;;;;;21.53;9.53;;;;;;;8.46;100.00;100715.05;5214963;56;1141055;-72
2022/01/02 06:33:48;;;;;;;15.73;7.97;;;;;;;8.45;100.00;100717.31;5214500;56;1141061;-74
2022/01/02 06:38:54;;;;;;;21.60;13.70;;;;;;;8.46;100.00;100719.48;5215457;56;1141321;-74
2022/01/02 06:44:00;;;;;;;10.47;7.97;;;;;;;8.46;100.00;100744.52;5215366;56;1143179;-75
2022/01/02 06:49:07;;;;;;;16.57;10.07;;;;;;;8.45;100.00;100744.14;5200034;56;1141004;-76
2022/01/02 06:54:13;;;;;;;13.00;6.90;;;;;;;8.41;100.00;100732.95;5089439;57;1143195;-76
2022/01/02 06:59:19;;;;;;;12.00;5.90;;;;;;;8.39;100.00;100715.10;5128320;57;1141083;-75
2022/01/02 07:04:25;;;;;;;9.90;6.10;;;;;;;8.37;100.00;100692.42;5129740;57;1141151;-75
2022/01/02 07:09:32;;;;;;;8.40;5.77;;;;;;;8.38;100.00;100691.48;5110402;57;1136898;-75
2022/01/02 07:14:38;;;;;;;12.67;5.83;;;;;;;8.35;100.00;100679.81;5066459;57;1136890;-73
2022/01/02 07:19:43;;;;;;;7.97;5.27;;;;;;;8.31;100.00;100667.74;5112653;57;1138951;-72
2022/01/02 07:24:51;;;;;;;10.90;5.90;;;;;;;8.29;100.00;100648.55;5046867;57;1136978;-74
2022/01/02 07:29:56;;;;;;;9.63;5.80;;;;;;;8.27;100.00;100661.83;5118760;57;1138944;-73
2022/01/02 07:35:04;;;;;;;10.43;5.70;;;;;;;8.25;100.00;100648.41;5129848;57;1136927;-72
2022/01/02 07:40:10;;;;;;;17.57;8.27;;;;;;;8.25;100.00;100659.76;5131795;57;1139379;-73
2022/01/02 07:45:16;;;;;;;13.17;5.60;;;;;;;8.25;100.00;100655.80;5131868;57;1138982;-74
2022/01/02 07:50:22;;;;;;;12.17;7.20;;;;;;;8.27;100.00;100622.77;5131873;57;1138957;-75
2022/01/02 07:55:28;;;;;;;13.63;5.17;;;;;;;8.28;100.00;100615.24;5131830;57;1138963;-72
2022/01/02 08:00:34;;;;;;;13.07;6.87;;;;;;;8.31;100.00;100586.05;5131931;57;1138847;-74
2022/01/02 08:05:39;;;;;;;51.57;25.70;;;;;;;8.33;100.00;100532.81;5131760;57;1139052;-75
2022/01/02 08:10:45;;;;;;;115.17;62.37;;;;;;;8.36;100.00;100559.81;5103379;57;1141028;-77
2022/01/02 08:15:51;;;;;;;422.27;242.70;;;;;;;8.34;100.00;100586.73;5081380;57;1143143;-68
2022/01/02 08:20:57;;;;;;;99.90;70.87;;;;;;;8.35;100.00;100598.97;5110506;57;1145370;-73
2022/01/02 08:26:04;;;;;;;52.50;35.80;;;;;;;8.36;100.00;100585.32;5061368;57;1141303;-73
2022/01/02 08:31:10;;;;;;;21.13;15.13;;;;;;;8.38;100.00;100570.25;5083068;57;1141106;-74
2022/01/02 08:36:16;;;;;;;16.53;7.13;;;;;;;8.43;100.00;100556.27;5089659;57;1139173;-70
2022/01/02 08:41:27;;;;;;;25.20;10.00;;;;;;;8.46;100.00;100541.57;5085997;57;1137086;-71
2022/01/02 08:46:32;;;;;;;36.17;14.37;;;;;;;8.50;100.00;100535.63;5079489;57;1143291;-73
2022/01/02 08:51:38;;;;;;;55.70;16.97;;;;;;;8.53;100.00;100540.69;5076483;57;1143056;-75
2022/01/02 08:56:44;;;;;;;45.57;13.10;;;;;;;8.55;100.00;100537.48;5076565;56;1143380;-75
2022/01/02 09:01:49;;;;;;;17.87;7.17;;;;;;;8.55;100.00;100535.69;5037627;57;1143098;-75
2022/01/02 09:06:55;;;;;;;19.37;8.77;;;;;;;8.56;100.00;100515.41;5037420;57;1141109;-77
2022/01/02 09:12:01;;;;;;;14.27;6.53;;;;;;;8.57;100.00;100515.30;5086541;56;1141045;-83
2022/01/02 09:17:06;;;;;;;32.57;12.53;;;;;;;8.57;100.00;100510.03;5106435;57;1141397;-78
2022/01/02 09:22:12;;;;;;;24.43;9.73;;;;;;;8.59;100.00;100531.02;5122937;57;1143162;-85
2022/01/02 09:27:17;;;;;;;17.23;8.13;;;;;;;8.56;100.00;100521.52;5122778;57;1141013;-81
2022/01/02 09:32:23;;;;;;;17.10;7.87;;;;;;;8.59;100.00;100508.61;5121954;57;1141191;-82
2022/01/02 09:37:29;;;;;;;14.60;7.35;;;;;;;8.59;100.00;100501.55;5123416;57;1141126;-80
2022/01/02 09:42:39;;;;;;;17.32;11.12;;;;;;;8.62;100.00;100497.86;5130273;57;1141101;-70
2022/01/02 09:47:45;;;;;;;19.50;8.80;;;;;;;8.64;100.00;100483.63;5105815;57;1143111;-77
2022/01/02 09:52:51;;;;;;;49.23;15.05;;;;;;;8.68;100.00;100489.06;5061888;57;1141371;-74
2022/01/02 09:57:59;;;;;;;17.33;9.03;;;;;;;8.72;100.00;100489.19;5059055;57;1143124;-75
2022/01/02 10:03:07;;;;;;;9.53;5.42;;;;;;;8.74;100.00;100466.20;5058863;57;1141046;-72
2022/01/02 10:08:25;;;;;;;21.87;7.83;;;;;;;8.76;100.00;100452.91;5070976;57;1138998;-73
2022/01/02 10:13:49;;;;;;;9.93;6.07;;;;;;;8.78;100.00;100455.81;5034944;58;1141244;-73
2022/01/02 10:18:57;;;;;;;10.37;6.37;;;;;;;8.82;100.00;100434.02;5066426;57;1139002;-73
2022/01/02 10:24:21;;;;;;;11.40;7.20;;;;;;;8.85;100.00;100410.08;5106946;57;1141076;-73
2022/01/02 10:29:26;;;;;;;34.53;16.10;;;;;;;8.87;100.00;100393.64;5103330;57;1141239;-73
2022/01/02 10:34:33;;;;;;;16.00;9.23;;;;;;;8.87;100.00;100388.36;5101463;57;1143229;-74
2022/01/02 10:39:40;;;;;;;29.70;9.73;;;;;;;8.89;100.00;100389.09;5109199;57;1141140;-73
2022/01/02 10:44:46;;;;;;;27.10;15.70;;;;;;;8.90;100.00;100388.63;5100451;57;1141084;-74
2022/01/02 10:50:07;;;;;;;16.10;9.00;;;;;;;8.93;100.00;100393.20;5094672;57;1143123;-74
2022/01/02 10:55:20;;;;;;;97.40;46.50;;;;;;;8.93;100.00;100385.29;5093765;57;1141280;-74
2022/01/02 11:00:29;;;;;;;97.50;49.00;;;;;;;8.96;100.00;100375.84;5082231;57;1141358;-73
2022/01/02 11:05:39;;;;;;;22.37;11.20;;;;;;;8.94;100.00;100360.60;5081739;57;1141263;-73
2022/01/02 11:10:47;;;;;;;258.33;126.37;;;;;;;9.01;100.00;100372.87;5108273;57;1141333;-73
2022/01/02 11:15:54;;;;;;;192.40;88.03;;;;;;;9.03;100.00;100356.44;5082280;57;1145602;-74
2022/01/02 11:21:01;;;;;;;219.80;119.30;;;;;;;9.04;100.00;100341.81;4963337;58;1143508;-74
2022/01/02 11:26:17;;;;;;;177.27;83.13;;;;;;;9.06;100.00;100345.19;5134579;56;1145531;-74
2022/01/02 11:31:32;;;;;;;60.27;25.50;;;;;;;9.08;100.00;100320.86;5057787;58;1143136;-73
2022/01/02 11:36:38;;;;;;;11.37;5.53;;;;;;;9.09;100.00;100311.98;5088390;57;1141052;-74
2022/01/02 11:41:46;;;;;;;9.97;4.80;;;;;;;9.12;100.00;100291.98;5086995;57;1139276;-74
2022/01/02 11:46:58;;;;;;;13.80;5.43;;;;;;;9.13;100.00;100280.47;5090428;57;1136901;-73
2022/01/02 11:52:22;;;;;;;11.70;5.63;;;;;;;9.15;100.00;100275.92;4991702;58;1136989;-74
2022/01/02 11:57:35;;;;;;;14.07;7.27;;;;;;;9.16;100.00;100264.41;5098401;57;1141219;-73
2022/01/02 12:02:41;;;;;;;28.83;10.40;;;;;;;9.21;100.00;100273.75;5103739;57;1141051;-73
2022/01/02 12:07:58;;;;;;;14.68;7.08;;;;;;;9.24;100.00;100261.17;5096469;57;1143287;-74
2022/01/02 12:13:17;;;;;;;20.50;9.67;;;;;;;9.29;100.00;100260.84;5099813;57;1141385;-74
2022/01/02 12:18:26;;;;;;;16.80;7.97;;;;;;;9.32;100.00;100248.73;5101710;57;1141113;-73
2022/01/02 12:23:49;;;;;;;33.35;12.98;;;;;;;9.34;100.00;100251.59;5102915;57;1141024;-74
2022/01/02 12:29:06;;;;;;;20.97;9.53;;;;;;;9.39;100.00;100244.16;5100025;57;1143469;-73
2022/01/02 12:34:17;;;;;;;15.07;7.97;;;;;;;9.44;100.00;100233.27;5098734;57;1141008;-74
2022/01/02 12:39:40;;;;;;;14.10;8.17;;;;;;;9.49;100.00;100231.09;5096262;57;1140412;-74
2022/01/02 12:44:45;;;;;;;32.20;18.50;;;;;;;9.51;100.00;100214.17;5117596;57;1141008;-73
2022/01/02 12:49:51;;;;;;;22.43;11.63;;;;;;;9.57;100.00;100209.39;5128126;57;1143117;-74
2022/01/02 12:54:57;;;;;;;11.43;7.27;;;;;;;9.60;100.00;100207.35;5102454;57;1143480;-74
2022/01/02 13:00:03;;;;;;;13.03;6.87;;;;;;;9.64;100.00;100186.80;5058905;58;1141134;-74
2022/01/02 13:05:11;;;;;;;11.20;5.40;;;;;;;9.67;100.00;100191.37;5084448;57;1141055;-73
2022/01/02 13:10:17;;;;;;;14.30;7.03;;;;;;;9.67;100.00;100179.97;5092726;57;1141028;-74
2022/01/02 13:15:25;;;;;;;17.77;7.60;;;;;;;9.67;100.00;100175.52;5093642;57;1141020;-75
2022/01/02 13:20:41;;;;;;;14.33;6.47;;;;;;;9.71;100.00;100175.65;5037554;58;1141086;-74
2022/01/02 13:25:47;;;;;;;15.60;6.63;;;;;;;9.72;100.00;100164.61;5134870;57;1138996;-76
2022/01/02 13:30:58;;;;;;;17.57;6.45;;;;;;;9.74;100.00;100156.09;5134821;57;1139241;-75
2022/01/02 13:36:15;;;;;;;21.60;10.57;;;;;;;9.77;100.00;100151.89;5096439;57;1139111;-76
2022/01/02 13:41:23;;;;;;;18.40;8.10;;;;;;;9.80;100.00;100154.25;5092587;57;1141504;-75
2022/01/02 13:46:29;;;;;;;21.33;10.27;;;;;;;9.80;100.00;100138.41;5081119;57;1138927;-76
2022/01/02 13:51:35;;;;;;;13.68;6.45;;;;;;;9.86;100.00;100147.17;5085244;57;1141094;-75
2022/01/02 13:56:56;;;;;;;14.03;6.37;;;;;;;9.86;100.00;100134.80;5085001;57;1139034;-76
2022/01/02 14:02:04;;;;;;;14.03;8.00;;;;;;;9.85;100.00;100129.64;5089428;57;1139067;-75
2022/01/02 14:07:10;;;;;;;16.97;6.50;;;;;;;9.84;100.00;100116.08;5079579;57;1139094;-74
2022/01/02 14:12:20;;;;;;;10.80;6.13;;;;;;;9.82;100.00;100105.63;5112188;57;1138840;-74
2022/01/02 14:17:39;;;;;;;12.77;5.40;;;;;;;9.80;100.00;100082.95;5085852;57;1139059;-74
2022/01/02 14:22:43;;;;;;;15.83;6.37;;;;;;;9.77;100.00;100087.19;5127277;57;1141017;-74
2022/01/02 14:27:53;;;;;;;13.17;4.77;;;;;;;9.76;100.00;100078.42;5126128;57;1140961;-74
2022/01/02 14:32:59;;;;;;;16.77;9.13;;;;;;;9.75;100.00;100057.42;5086431;57;1141031;-74
2022/01/02 14:38:05;;;;;;;21.57;9.30;;;;;;;9.74;100.00;100049.97;5088802;57;1141299;-74
2022/01/02 14:43:11;;;;;;;48.90;17.97;;;;;;;9.74;100.00;100041.22;5099380;57;1141112;-75
2022/01/02 14:48:17;;;;;;;20.37;11.43;;;;;;;9.75;100.00;100027.05;5118995;57;1143266;-75
2022/01/02 14:53:23;;;;;;;46.43;18.00;;;;;;;9.74;100.00;100014.80;5140960;57;1143359;-74
2022/01/02 14:58:31;;;;;;;40.27;16.67;;;;;;;9.72;100.00;100004.37;5140486;57;1143368;-76
2022/01/02 15:03:42;;;;;;;24.73;11.97;;;;;;;9.72;100.00;99995.61;5141900;57;1143407;-75
2022/01/02 15:08:50;;;;;;;30.57;13.03;;;;;;;9.67;100.00;99982.77;5150001;56;1141083;-75
2022/01/02 15:13:56;;;;;;;30.87;12.57;;;;;;;9.63;100.00;99961.53;5228011;56;1141232;-75
2022/01/02 15:19:01;;;;;;;58.30;29.73;;;;;;;9.62;100.00;99952.45;5227740;56;1141141;-75
2022/01/02 15:24:06;;;;;;;21.40;8.23;;;;;;;9.60;100.00;99928.81;5181898;56;1140908;-75
2022/01/02 15:29:12;;;;;;;18.40;8.67;;;;;;;9.58;100.00;99919.34;5058648;58;1139047;-75
2022/01/02 15:34:18;;;;;;;21.17;9.40;;;;;;;9.57;100.00;99911.06;5049948;58;1138974;-75
2022/01/02 15:39:23;;;;;;;26.40;12.83;;;;;;;9.51;100.00;99902.67;5047137;58;1139074;-76
2022/01/02 15:44:29;;;;;;;21.80;8.93;;;;;;;9.51;100.00;99889.95;5056703;57;1141059;-76
2022/01/02 15:49:35;;;;;;;28.60;11.57;;;;;;;9.48;100.00;99883.12;5122240;57;1139279;-76
2022/01/02 15:54:42;;;;;;;55.53;20.17;;;;;;;9.49;100.00;99909.88;5118038;57;1141372;-76
2022/01/02 15:59:48;;;;;;;43.93;19.50;;;;;;;9.48;100.00;99914.80;5119150;57;1141302;-74
2022/01/02 16:04:54;;;;;;;28.20;13.73;;;;;;;9.45;100.00;99899.24;5080954;57;1141337;-76
2022/01/02 16:10:00;;;;;;;43.40;17.87;;;;;;;9.43;100.00;99906.92;5137257;56;1141055;-76
2022/01/02 16:15:06;;;;;;;65.70;44.50;;;;;;;9.37;100.00;99918.81;5091285;57;1141108;-79
2022/01/02 16:20:15;;;;;;;60.20;18.57;;;;;;;9.35;100.00;99949.77;5085641;57;1141038;-70
2022/01/02 16:25:18;;;;;;;44.40;19.13;;;;;;;9.31;100.00;99935.66;5096694;56;1141371;-75
2022/01/02 16:30:24;;;;;;;129.73;74.00;;;;;;;9.27;100.00;99911.79;5085178;56;1141121;-75
2022/01/02 16:35:31;;;;;;;29.03;14.07;;;;;;;9.27;100.00;99877.00;5088422;56;1143305;-76
2022/01/02 16:40:37;;;;;;;31.83;15.80;;;;;;;9.27;100.00;99849.78;5102128;56;1141451;-77
2022/01/02 16:45:42;;;;;;;67.92;34.98;;;;;;;9.28;100.00;99872.56;5078127;56;1141089;-73
2022/01/02 16:50:48;;;;;;;38.50;20.08;;;;;;;9.29;100.00;99854.45;5096515;56;1141286;-75
2022/01/02 16:55:54;;;;;;;26.47;13.73;;;;;;;9.31;100.00;99821.70;5102856;56;1141701;-75
2022/01/02 17:01:00;;;;;;;29.50;16.77;;;;;;;9.34;100.00;99808.23;5111472;56;1141203;-75
2022/01/02 17:06:05;;;;;;;22.93;10.47;;;;;;;9.38;100.00;99801.73;5118974;56;1141099;-76
2022/01/02 17:11:11;;;;;;;23.90;9.70;;;;;;;9.40;100.00;99785.77;5092323;56;1141427;-76
2022/01/02 17:16:20;;;;;;;28.70;10.90;;;;;;;9.43;100.00;99772.33;5105442;56;1138998;-75
2022/01/02 17:21:26;;;;;;;14.83;7.20;;;;;;;9.47;100.00;99774.55;5108811;56;1141034;-73
2022/01/02 17:26:32;;;;;;;19.07;9.60;;;;;;;9.49;100.00;99775.74;5099586;56;1138997;-72
2022/01/02 17:31:59;;;;;;;30.05;11.48;;;;;;;9.51;100.00;99787.02;5113549;56;1137038;-73
2022/01/02 17:37:08;;;;;;;23.90;9.57;;;;;;;9.52;100.00;99778.13;5096187;56;1138974;-74
2022/01/02 17:42:14;;;;;;;30.47;10.67;;;;;;;9.48;100.00;99772.27;5111749;56;1136911;-71
2022/01/02 17:47:20;;;;;;;46.03;17.97;;;;;;;9.45;100.00;99776.99;5099036;56;1139196;-71
2022/01/02 17:52:26;;;;;;;44.77;16.87;;;;;;;9.39;100.00;99784.09;5108921;56;1139236;-74
2022/01/02 17:57:33;;;;;;;47.40;24.47;;;;;;;9.35;100.00;99778.23;5098601;56;1139113;-74
2022/01/02 18:02:41;;;;;;;51.83;21.57;;;;;;;9.30;100.00;99777.80;5102342;56;1139017;-75
2022/01/02 18:07:47;;;;;;;45.07;14.73;;;;;;;9.27;100.00;99775.42;5133624;56;1138979;-76
2022/01/02 18:12:53;;;;;;;141.93;104.77;;;;;;;9.23;100.00;99758.64;5102972;56;1139194;-77
2022/01/02 18:18:01;;;;;;;86.30;26.50;;;;;;;9.21;100.00;99763.21;5097897;56;1143161;-77
2022/01/02 18:23:08;;;;;;;39.20;13.23;;;;;;;9.22;100.00;99764.41;5109430;56;1139059;-76
2022/01/02 18:28:15;;;;;;;26.13;9.70;;;;;;;9.23;100.00;99762.13;5101814;56;1138955;-76
2022/01/02 18:33:21;;;;;;;19.77;8.03;;;;;;;9.28;100.00;99748.55;5099822;56;1134765;-77
2022/01/02 18:38:28;;;;;;;21.20;5.93;;;;;;;9.28;100.00;99734.87;5121946;56;1134794;-78
2022/01/02 18:43:34;;;;;;;17.63;7.87;;;;;;;9.30;100.00;99736.91;5115300;56;1138930;-77
2022/01/02 18:48:40;;;;;;;15.47;5.67;;;;;;;9.38;100.00;99741.03;5108511;56;1139041;-77
2022/01/02 18:53:47;;;;;;;16.23;5.87;;;;;;;9.42;100.00;99716.06;5095681;56;1139284;-76
2022/01/02 18:58:53;;;;;;;13.83;5.87;;;;;;;9.46;100.00;99706.09;5106101;56;1138851;-76
2022/01/02 19:03:59;;;;;;;7.30;4.17;;;;;;;9.47;100.00;99705.13;5101761;56;1139213;-76
2022/01/02 19:09:05;;;;;;;10.40;5.20;;;;;;;9.45;100.00;99702.61;5101971;57;1136865;-75
2022/01/02 19:14:12;;;;;;;43.77;5.87;;;;;;;9.45;100.00;99692.53;5076401;57;1138947;-75
2022/01/02 19:19:18;;;;;;;11.33;5.30;;;;;;;9.45;100.00;99680.66;5087052;57;1139011;-75
2022/01/02 19:24:25;;;;;;;11.70;5.23;;;;;;;9.43;100.00;99685.23;5062605;57;1139037;-75
2022/01/02 19:29:31;;;;;;;13.00;5.90;;;;;;;9.42;100.00;99682.23;5039124;57;1139425;-75
2022/01/02 19:34:37;;;;;;;11.10;5.03;;;;;;;9.39;100.00;99695.69;5039135;57;1139300;-75
2022/01/02 19:39:48;;;;;;;10.47;4.63;;;;;;;9.42;100.00;99688.84;5049281;57;1139012;-75
2022/01/02 19:44:53;;;;;;;13.17;5.03;;;;;;;9.42;100.00;99683.08;5076449;57;1138455;-75
2022/01/02 19:49:59;;;;;;;19.53;7.53;;;;;;;9.44;100.00;99683.78;5109331;57;1139025;-76
2022/01/02 19:55:08;;;;;;;37.00;16.80;;;;;;;9.47;100.00;99691.41;5070299;57;1139029;-75
2022/01/02 20:00:21;;;;;;;28.53;6.70;;;;;;;9.47;100.00;99666.34;5097346;57;1141143;-76
2022/01/02 20:05:27;;;;;;;18.17;6.67;;;;;;;9.49;100.00;99682.88;5046712;57;1139389;-75
2022/01/02 20:10:33;;;;;;;24.13;8.63;;;;;;;9.50;100.00;99677.95;5082680;57;1139296;-76
2022/01/02 20:15:39;;;;;;;9.33;3.80;;;;;;;9.45;100.00;99677.53;5129501;57;1138972;-71
2022/01/02 20:20:44;;;;;;;10.20;3.93;;;;;;;9.43;100.00;99678.15;5126972;57;1137441;-73
2022/01/02 20:25:50;;;;;;;12.20;4.85;;;;;;;9.43;100.00;99681.27;5113269;57;1138962;-71
2022/01/02 20:30:56;;;;;;;7.73;4.20;;;;;;;9.44;100.00;99690.86;5073710;57;1139129;-71
2022/01/02 20:36:07;;;;;;;13.07;5.10;;;;;;;9.43;100.00;99679.95;5069204;57;1137002;-71
2022/01/02 20:41:14;;;;;;;7.20;4.30;;;;;;;9.45;100.00;99680.66;5089505;57;1139015;-72
2022/01/02 20:46:19;;;;;;;9.23;4.93;;;;;;;9.46;100.00;99682.33;5087486;57;1137080;-70
2022/01/02 20:51:25;;;;;;;14.17;5.77;;;;;;;9.47;100.00;99672.94;5083576;57;1137009;-73
2022/01/02 20:56:31;;;;;;;9.70;3.87;;;;;;;9.45;100.00;99674.06;5089600;57;1139116;-73
2022/01/02 21:01:38;;;;;;;9.57;3.97;;;;;;;9.41;100.00;99666.88;5115917;57;1136872;-70
2022/01/02 21:06:44;;;;;;;11.97;5.27;;;;;;;9.40;100.00;99679.72;5061682;57;1136866;-72
2022/01/02 21:11:50;;;;;;;15.17;5.30;;;;;;;9.38;100.00;99679.50;5103936;57;1139302;-70
2022/01/02 21:16:55;;;;;;;17.40;5.60;;;;;;;9.36;100.00;99672.19;5083286;57;1139327;-71
2022/01/02 21:22:01;;;;;;;14.43;6.40;;;;;;;9.36;100.00;99671.71;5077287;57;1138994;-73
2022/01/02 21:27:08;;;;;;;12.70;5.80;;;;;;;9.36;100.00;99661.64;5091258;57;1138990;-70
2022/01/02 21:32:14;;;;;;;10.00;4.10;;;;;;;9.37;100.00;99661.51;5083763;57;1139022;-72
2022/01/02 21:37:21;;;;;;;5.83;4.13;;;;;;;9.38;100.00;99659.70;5129071;57;1138981;-71
2022/01/02 21:42:27;;;;;;;6.87;3.87;;;;;;;9.39;100.00;99660.90;5088230;57;1134822;-71
2022/01/02 21:47:33;;;;;;;32.33;12.33;;;;;;;9.41;100.00;99650.22;5105700;57;1134854;-70
2022/01/02 21:52:38;;;;;;;29.67;7.00;;;;;;;9.42;100.00;99649.25;5100888;57;1139009;-70
2022/01/02 21:57:44;;;;;;;21.03;6.63;;;;;;;9.44;100.00;99660.03;5119004;57;1136907;-67
2022/01/02 22:02:50;;;;;;;22.53;6.37;;;;;;;9.44;100.00;99650.79;5106222;57;1136960;-71
2022/01/02 22:07:57;;;;;;;14.73;5.47;;;;;;;9.49;100.00;99658.29;5106261;57;1136912;-73
2022/01/02 22:13:04;;;;;;;11.70;4.20;;;;;;;9.52;100.00;99655.39;5063661;57;1136873;-73
2022/01/02 22:18:11;;;;;;;6.77;3.23;;;;;;;9.55;100.00;99656.45;5110113;57;1137121;-72
2022/01/02 22:23:20;;;;;;;7.13;2.70;;;;;;;9.57;100.00;99657.64;5129907;57;1134891;-72
2022/01/02 22:28:27;;;;;;;6.27;2.93;;;;;;;9.60;100.00;99668.77;5129951;57;1134878;-69
2022/01/02 22:33:34;;;;;;;8.17;4.07;;;;;;;9.64;100.00;99667.52;5129950;57;1135292;-72
2022/01/02 22:38:40;;;;;;;10.23;3.77;;;;;;;9.66;100.00;99664.26;5129866;57;1135102;-73
2022/01/02 22:43:47;;;;;;;4.73;2.67;;;;;;;9.69;100.00;99669.28;5129690;57;1136929;-70
2022/01/02 22:48:57;;;;;;;7.33;3.10;;;;;;;9.70;100.00;99666.98;5129966;57;1135072;-68
2022/01/02 22:54:03;;;;;;;4.83;2.73;;;;;;;9.72;100.00;99666.86;5103581;57;1135155;-73
2022/01/02 22:59:10;;;;;;;4.03;1.80;;;;;;;9.80;100.00;99659.92;5142010;57;1135068;-72
2022/01/02 23:04:16;;;;;;;4.57;2.97;;;;;;;9.85;100.00;99655.56;5141982;57;1132803;-70